Terminal Aerodrome Forecast
Issued by NWS

Home | Current Version | Previous Version | Text Only | Print | Product List | Glossary On
Versions: 1 2 3 4 5 6 7 8 9 10 11 12 13
000
FTUS45 KFGZ 062331
TAFSEZ
TAF
KSEZ 062331Z 0700/0724 23009KT P6SM SCT080 BKN110
      TEMPO 0700/0702 VRB10G25KT 5SM -TSRA BKN070CB
     FM070300 VRB06KT P6SM FEW070 SCT120 BKN200
     FM070600 VRB04KT P6SM SCT200
     FM071600 VRB02KT P6SM SCT120 PROB30 0718/0724 -TSRA BKN080CB=

USA.gov is the U.S. government's official web portal to all federal, state and local government web resources and services.